createdAt,value
2022-10-05T00:01:23.670Z,7.40
2022-10-05T00:03:52.854Z,7.40
2022-10-05T00:06:22.375Z,7.40
2022-10-05T00:08:50.248Z,7.40
2022-10-05T00:11:18.655Z,7.50
2022-10-05T00:13:47.176Z,7.50
2022-10-05T00:16:19.105Z,7.50
2022-10-05T00:18:49.993Z,7.50
2022-10-05T00:21:21.471Z,7.40
2022-10-05T00:23:52.895Z,7.40
2022-10-05T00:26:22.822Z,7.40
2022-10-05T00:28:51.508Z,7.40
2022-10-05T00:31:22.025Z,7.40
2022-10-05T00:33:50.299Z,7.40
2022-10-05T00:36:18.938Z,7.40
2022-10-05T00:38:46.931Z,7.30
2022-10-05T00:41:23.839Z,7.30
2022-10-05T00:44:27.255Z,7.20
2022-10-05T00:46:58.893Z,7.20
2022-10-05T00:49:47.194Z,7.10
2022-10-05T00:52:24.341Z,7.00
2022-10-05T00:55:00.958Z,6.90
2022-10-05T00:57:44.398Z,6.90
2022-10-05T01:00:17.205Z,6.90
2022-10-05T01:02:55.489Z,6.80
2022-10-05T01:05:34.940Z,6.70
2022-10-05T01:08:12.274Z,6.70
2022-10-05T01:10:46.276Z,6.60
2022-10-05T01:13:25.485Z,6.50
2022-10-05T01:16:00.267Z,6.40
2022-10-05T01:18:39.324Z,6.40
2022-10-05T01:21:15.159Z,6.30
2022-10-05T01:24:29.578Z,6.20
2022-10-05T01:27:37.066Z,6.10
2022-10-05T01:30:12.035Z,6.20
2022-10-05T01:32:48.383Z,6.20
2022-10-05T01:35:31.482Z,6.20
2022-10-05T01:38:12.566Z,6.20
2022-10-05T01:40:50.185Z,6.30
2022-10-05T01:43:24.943Z,6.30
2022-10-05T01:46:03.058Z,6.30
2022-10-05T01:48:44.071Z,6.30
2022-10-05T01:51:23.325Z,6.30
2022-10-05T01:54:04.446Z,6.30
2022-10-05T01:56:40.878Z,6.30
2022-10-05T01:59:21.178Z,6.30
2022-10-05T02:01:58.623Z,6.30
2022-10-05T02:05:00.976Z,6.30
2022-10-05T02:07:25.284Z,6.40
2022-10-05T02:09:57.631Z,6.50
2022-10-05T02:12:28.786Z,6.70
2022-10-05T02:14:59.402Z,6.60
2022-10-05T02:17:37.486Z,6.70
2022-10-05T02:20:11.014Z,6.60
2022-10-05T02:22:43.914Z,6.70
2022-10-05T02:25:16.806Z,6.70
2022-10-05T02:27:50.227Z,6.80
2022-10-05T02:30:22.074Z,6.90
2022-10-05T02:32:55.705Z,7.00
2022-10-05T02:35:24.176Z,7.00
2022-10-05T02:38:03.467Z,7.00
2022-10-05T02:40:44.445Z,7.10
2022-10-05T02:43:22.081Z,7.10
2022-10-05T02:45:58.339Z,7.20
2022-10-05T02:48:39.220Z,7.20
2022-10-05T02:51:16.685Z,7.30
2022-10-05T02:53:53.089Z,7.30
2022-10-05T02:56:28.169Z,7.30
2022-10-05T02:59:05.380Z,7.30
2022-10-05T03:01:37.704Z,7.30
2022-10-05T03:04:22.011Z,7.30
2022-10-05T03:06:59.794Z,7.40
2022-10-05T03:09:35.049Z,7.40
2022-10-05T03:12:13.515Z,7.50
2022-10-05T03:14:52.182Z,7.60
2022-10-05T03:17:23.643Z,7.70
2022-10-05T03:20:06.302Z,7.60
2022-10-05T03:22:47.876Z,7.70
2022-10-05T03:25:42.513Z,7.60
2022-10-05T03:28:18.506Z,7.70
2022-10-05T03:30:53.611Z,7.70
2022-10-05T03:33:32.138Z,7.70
2022-10-05T03:36:08.670Z,7.70
2022-10-05T03:38:44.912Z,7.80
2022-10-05T03:41:19.031Z,7.80
2022-10-05T03:44:15.826Z,7.90
2022-10-05T03:46:55.064Z,7.90
2022-10-05T03:49:33.076Z,7.90
2022-10-05T03:52:08.942Z,7.90
2022-10-05T03:54:41.777Z,7.80
2022-10-05T03:57:14.379Z,7.80
2022-10-05T03:59:50.436Z,7.80
2022-10-05T04:02:25.761Z,7.80
2022-10-05T04:04:59.589Z,7.80
2022-10-05T04:07:38.057Z,7.80
2022-10-05T04:10:14.006Z,7.90
2022-10-05T04:12:45.175Z,7.90
2022-10-05T04:15:22.863Z,7.80
2022-10-05T04:17:56.541Z,7.80
2022-10-05T04:20:30.279Z,7.80
2022-10-05T04:23:12.464Z,7.70
2022-10-05T04:25:45.349Z,7.70
2022-10-05T04:28:19.409Z,7.70
2022-10-05T04:30:51.547Z,7.50
2022-10-05T04:33:19.621Z,7.40
2022-10-05T04:36:11.069Z,7.50
2022-10-05T04:38:49.500Z,7.50
2022-10-05T04:41:45.737Z,7.40
2022-10-05T04:44:25.450Z,7.20
2022-10-05T04:47:09.313Z,7.10
2022-10-05T04:49:56.012Z,7.20
2022-10-05T04:52:28.797Z,7.20
2022-10-05T04:55:10.639Z,7.20
2022-10-05T04:57:42.728Z,7.30
2022-10-05T05:00:21.042Z,7.50
2022-10-05T05:03:14.899Z,7.60
2022-10-05T05:06:15.520Z,7.60
2022-10-05T05:08:59.906Z,7.70
2022-10-05T05:11:39.174Z,7.90
2022-10-05T05:14:28.927Z,8.00
2022-10-05T05:17:13.032Z,8.10
2022-10-05T05:19:52.234Z,8.30
2022-10-05T05:22:28.210Z,8.40
2022-10-05T05:25:20.186Z,8.40
2022-10-05T05:27:54.900Z,8.50
2022-10-05T05:30:25.388Z,8.50
2022-10-05T05:33:11.148Z,8.50
2022-10-05T05:36:09.151Z,8.50
2022-10-05T05:38:42.421Z,8.50
2022-10-05T05:41:12.955Z,8.60
2022-10-05T05:43:56.081Z,8.70
2022-10-05T05:46:51.236Z,8.70
2022-10-05T05:49:19.406Z,8.70
2022-10-05T05:51:55.378Z,8.80
2022-10-05T05:54:29.506Z,8.80
2022-10-05T05:57:08.984Z,8.90
2022-10-05T05:59:57.719Z,8.90
2022-10-05T06:02:32.737Z,9.00
2022-10-05T06:05:10.684Z,9.10
2022-10-05T06:07:39.589Z,9.20
2022-10-05T06:10:19.734Z,9.30
2022-10-05T06:12:50.558Z,9.40
2022-10-05T06:15:28.506Z,9.50
2022-10-05T06:18:00.602Z,9.50
2022-10-05T06:20:31.405Z,9.60
2022-10-05T06:23:04.507Z,9.60
2022-10-05T06:25:45.812Z,9.70
2022-10-05T06:28:15.995Z,9.80
2022-10-05T06:30:57.168Z,9.90
2022-10-05T06:33:41.498Z,10.10
2022-10-05T06:36:21.678Z,10.50
2022-10-05T06:39:32.431Z,10.80
2022-10-05T06:42:14.739Z,10.90
2022-10-05T06:44:50.459Z,11.10
2022-10-05T06:47:30.629Z,11.10
2022-10-05T06:50:10.391Z,11.10
2022-10-05T06:52:51.558Z,11.20
2022-10-05T06:55:27.751Z,11.20
2022-10-05T06:58:18.425Z,11.20
2022-10-05T07:00:53.311Z,11.30
2022-10-05T07:03:36.769Z,11.20
2022-10-05T07:06:12.091Z,11.30
2022-10-05T07:08:55.345Z,11.30
2022-10-05T07:11:42.254Z,11.40
2022-10-05T07:14:20.974Z,11.30
2022-10-05T07:17:07.403Z,11.40
2022-10-05T07:19:47.544Z,11.40
2022-10-05T07:22:34.478Z,11.50
2022-10-05T07:25:10.572Z,11.50
2022-10-05T07:27:49.537Z,11.60
2022-10-05T07:30:20.728Z,11.70
2022-10-05T07:33:00.127Z,11.70
2022-10-05T07:35:58.167Z,11.80
2022-10-05T07:38:33.149Z,11.90
2022-10-05T07:41:07.652Z,12.00
2022-10-05T07:44:01.492Z,12.10
2022-10-05T07:46:45.096Z,12.10
2022-10-05T07:49:23.166Z,12.20
2022-10-05T07:51:57.655Z,12.30
2022-10-05T07:54:34.164Z,12.30
2022-10-05T07:57:11.818Z,12.40
2022-10-05T07:59:45.696Z,12.40
2022-10-05T08:02:24.364Z,12.40
2022-10-05T08:04:58.677Z,12.40
2022-10-05T08:07:33.006Z,12.50
2022-10-05T08:10:14.733Z,12.60
2022-10-05T08:12:53.572Z,12.70
2022-10-05T08:15:24.837Z,12.80
2022-10-05T08:17:57.188Z,12.70
2022-10-05T08:20:40.855Z,12.70
2022-10-05T08:23:23.565Z,12.70
2022-10-05T08:26:16.278Z,12.90
2022-10-05T08:28:54.451Z,13.00
2022-10-05T08:31:26.872Z,13.00
2022-10-05T08:34:02.093Z,13.20
2022-10-05T08:36:54.098Z,13.30
2022-10-05T08:39:27.382Z,13.40
2022-10-05T08:42:31.735Z,13.60
2022-10-05T08:45:29.382Z,13.70
2022-10-05T08:48:27.200Z,13.60
2022-10-05T08:51:31.110Z,13.80
2022-10-05T08:54:34.806Z,13.80
2022-10-05T08:57:35.894Z,13.80
2022-10-05T09:00:12.024Z,13.80
2022-10-05T09:03:00.291Z,13.80
2022-10-05T09:05:46.313Z,13.90
2022-10-05T09:08:45.610Z,14.00
2022-10-05T09:11:22.074Z,13.90
2022-10-05T09:14:03.979Z,13.90
2022-10-05T09:16:51.649Z,13.90
2022-10-05T09:19:53.261Z,14.00
2022-10-05T09:22:38.180Z,14.00
2022-10-05T09:25:24.122Z,14.10
2022-10-05T09:28:00.687Z,14.30
2022-10-05T09:30:43.376Z,14.40
2022-10-05T09:33:42.050Z,14.50
2022-10-05T09:36:55.816Z,14.60
2022-10-05T09:39:44.240Z,14.80
2022-10-05T09:42:42.047Z,15.00
2022-10-05T09:45:44.330Z,15.20
2022-10-05T09:48:56.171Z,15.40
2022-10-05T09:52:03.261Z,15.50
2022-10-05T09:55:20.308Z,15.90
2022-10-05T09:58:33.810Z,15.90
2022-10-05T10:01:32.593Z,15.90
2022-10-05T10:04:21.592Z,15.90
2022-10-05T10:07:26.696Z,16.00
2022-10-05T10:10:30.978Z,16.10
2022-10-05T10:13:18.176Z,16.20
2022-10-05T10:16:13.906Z,16.20
2022-10-05T10:19:07.738Z,16.10
2022-10-05T10:21:56.044Z,16.00
2022-10-05T10:24:43.702Z,15.90
2022-10-05T10:27:24.443Z,15.90
2022-10-05T10:30:18.858Z,16.00
2022-10-05T10:33:41.027Z,16.20
2022-10-05T10:36:14.739Z,16.30
2022-10-05T10:38:54.888Z,16.40
2022-10-05T10:41:48.060Z,16.50
2022-10-05T10:44:43.813Z,16.60
2022-10-05T10:47:51.659Z,16.80
2022-10-05T10:50:52.443Z,16.90
2022-10-05T10:53:53.906Z,17.00
2022-10-05T10:56:40.589Z,17.10
2022-10-05T10:59:43.444Z,17.10
2022-10-05T11:02:37.252Z,17.40
2022-10-05T11:05:19.958Z,17.80
2022-10-05T11:08:39.601Z,18.00
2022-10-05T11:12:01.569Z,18.20
2022-10-05T11:14:58.670Z,18.40
2022-10-05T11:17:37.974Z,18.50
2022-10-05T11:20:24.445Z,18.90
2022-10-05T11:22:59.061Z,19.10
2022-10-05T11:26:02.654Z,19.00
2022-10-05T11:28:51.910Z,19.20
2022-10-05T11:31:41.366Z,19.60
2022-10-05T11:34:53.152Z,19.80
2022-10-05T11:37:51.083Z,19.90
2022-10-05T11:40:52.723Z,19.80
2022-10-05T11:43:44.006Z,20.00
2022-10-05T11:46:18.164Z,20.20
2022-10-05T11:49:18.814Z,20.80
2022-10-05T11:51:55.761Z,21.20
2022-10-05T11:55:06.030Z,21.20
2022-10-05T11:57:34.719Z,21.30
2022-10-05T12:00:12.853Z,21.60
2022-10-05T12:03:04.540Z,21.30
2022-10-05T12:05:43.412Z,22.00
2022-10-05T12:08:26.003Z,22.70
2022-10-05T12:11:08.640Z,23.10
2022-10-05T12:13:44.956Z,23.80
2022-10-05T12:16:19.349Z,23.80
2022-10-05T12:18:54.645Z,24.00
2022-10-05T12:21:34.300Z,24.30
2022-10-05T12:24:10.725Z,24.60
2022-10-05T12:26:44.648Z,25.10
2022-10-05T12:29:18.358Z,24.90
2022-10-05T12:31:55.629Z,25.10
2022-10-05T12:34:34.241Z,24.40
2022-10-05T12:37:12.546Z,24.50
2022-10-05T12:39:49.902Z,24.90
2022-10-05T12:42:27.059Z,25.30
2022-10-05T12:45:17.843Z,24.70
2022-10-05T12:48:05.485Z,23.80
2022-10-05T12:50:36.803Z,24.40
2022-10-05T12:53:34.655Z,25.00
2022-10-05T12:56:10.126Z,24.70
2022-10-05T12:58:49.853Z,24.50
2022-10-05T13:01:28.217Z,24.60
2022-10-05T13:04:10.270Z,24.90
2022-10-05T13:06:43.824Z,24.80
2022-10-05T13:09:22.529Z,24.60
2022-10-05T13:11:54.210Z,24.80
2022-10-05T13:14:40.604Z,24.90
2022-10-05T13:17:18.588Z,24.90
2022-10-05T13:19:48.926Z,24.80
2022-10-05T13:22:31.776Z,24.90
2022-10-05T13:25:17.343Z,25.10
2022-10-05T13:27:53.534Z,25.10
2022-10-05T13:30:25.219Z,24.90
2022-10-05T13:32:58.704Z,24.80
2022-10-05T13:35:43.878Z,24.90
2022-10-05T13:38:25.268Z,25.00
2022-10-05T13:41:03.387Z,25.00
2022-10-05T13:43:43.953Z,25.10
2022-10-05T13:46:24.723Z,25.00
2022-10-05T13:49:03.773Z,24.90
2022-10-05T13:51:41.027Z,24.70
2022-10-05T13:54:20.162Z,24.60
2022-10-05T13:56:55.499Z,24.60
2022-10-05T13:59:31.677Z,24.70
2022-10-05T14:02:03.303Z,24.90
2022-10-05T14:04:45.458Z,24.70
2022-10-05T14:07:25.543Z,24.50
2022-10-05T14:09:53.833Z,24.50
2022-10-05T14:12:24.759Z,24.40
2022-10-05T14:14:57.714Z,24.50
2022-10-05T14:17:44.815Z,24.50
2022-10-05T14:20:23.803Z,24.30
2022-10-05T14:22:58.319Z,24.20
2022-10-05T14:25:26.699Z,24.10
2022-10-05T14:28:01.610Z,24.10
2022-10-05T14:30:31.121Z,24.20
2022-10-05T14:33:15.419Z,24.10
2022-10-05T14:35:49.488Z,24.10
2022-10-05T14:38:21.156Z,24.10
2022-10-05T14:41:04.577Z,24.10
2022-10-05T14:43:35.374Z,24.00
2022-10-05T14:46:24.968Z,23.90
2022-10-05T14:49:15.879Z,23.90
2022-10-05T14:51:44.010Z,23.80
2022-10-05T14:54:25.647Z,23.90
2022-10-05T14:57:03.208Z,23.80
2022-10-05T14:59:47.885Z,23.80
2022-10-05T15:02:35.745Z,23.80
2022-10-05T15:05:07.538Z,23.70
2022-10-05T15:07:42.037Z,23.70
2022-10-05T15:10:29.656Z,23.60
2022-10-05T15:13:11.227Z,23.50
2022-10-05T15:15:48.314Z,23.50
2022-10-05T15:18:31.812Z,23.40
2022-10-05T15:21:13.073Z,23.40
2022-10-05T15:23:47.391Z,23.30
2022-10-05T15:26:36.291Z,23.40
2022-10-05T15:29:14.482Z,23.30
2022-10-05T15:31:53.698Z,23.20
2022-10-05T15:34:29.645Z,23.10
2022-10-05T15:37:03.289Z,23.10
2022-10-05T15:39:38.160Z,23.00
2022-10-05T15:42:11.078Z,23.00
2022-10-05T15:44:52.181Z,22.90
2022-10-05T15:47:26.819Z,22.80
2022-10-05T15:50:06.791Z,22.80
2022-10-05T15:52:42.621Z,22.70
2022-10-05T15:55:35.213Z,22.70
2022-10-05T15:58:32.085Z,22.70
2022-10-05T16:01:08.520Z,22.50
2022-10-05T16:03:47.784Z,22.50
2022-10-05T16:06:41.684Z,22.40
2022-10-05T16:09:24.565Z,22.30
2022-10-05T16:12:02.220Z,22.30
2022-10-05T16:14:39.871Z,22.20
2022-10-05T16:17:29.284Z,22.10
2022-10-05T16:20:14.636Z,22.00
2022-10-05T16:22:50.349Z,21.90
2022-10-05T16:25:23.405Z,21.90
2022-10-05T16:28:07.669Z,21.80
2022-10-05T16:30:48.316Z,21.80
2022-10-05T16:33:23.695Z,21.70
2022-10-05T16:36:02.973Z,21.50
2022-10-05T16:38:38.753Z,21.30
2022-10-05T16:41:15.841Z,21.20
2022-10-05T16:46:40.951Z,20.80
2022-10-05T16:49:20.546Z,20.50
2022-10-05T16:51:57.603Z,20.30
2022-10-05T16:54:29.042Z,20.10
2022-10-05T16:57:03.229Z,20.00
2022-10-05T17:00:04.724Z,19.80
2022-10-05T17:02:43.410Z,19.60
2022-10-05T17:05:30.605Z,19.40
2022-10-05T17:08:36.590Z,19.20
2022-10-05T17:11:16.992Z,19.00
2022-10-05T17:14:09.882Z,18.70
2022-10-05T17:16:54.470Z,18.30
2022-10-05T17:19:46.614Z,18.00
2022-10-05T17:22:25.139Z,17.80
2022-10-05T17:25:03.231Z,17.50
2022-10-05T17:27:35.271Z,17.20
2022-10-05T17:30:48.455Z,17.00
2022-10-05T17:33:23.162Z,16.80
2022-10-05T17:35:56.751Z,16.90
2022-10-05T17:38:46.124Z,16.90
2022-10-05T17:41:24.339Z,16.80
2022-10-05T17:44:20.167Z,16.60
2022-10-05T17:46:49.929Z,16.30
2022-10-05T17:49:46.462Z,16.20
2022-10-05T17:52:41.545Z,16.10
2022-10-05T17:55:28.172Z,16.10
2022-10-05T17:57:59.984Z,15.90
2022-10-05T18:00:50.186Z,15.90
2022-10-05T18:03:35.141Z,15.80
2022-10-05T18:06:31.773Z,15.80
2022-10-05T18:09:27.966Z,15.70
2022-10-05T18:12:27.223Z,15.60
2022-10-05T18:15:00.584Z,15.50
2022-10-05T18:17:41.349Z,15.40
2022-10-05T18:20:31.692Z,15.20
2022-10-05T18:23:35.382Z,14.90
2022-10-05T18:26:09.405Z,14.80
2022-10-05T18:28:51.134Z,14.70
2022-10-05T18:31:31.968Z,15.00
2022-10-05T18:34:21.761Z,14.80
2022-10-05T18:37:07.241Z,14.70
2022-10-05T18:39:59.073Z,14.70
2022-10-05T18:42:34.104Z,14.50
2022-10-05T18:45:17.485Z,14.40
2022-10-05T18:47:55.565Z,14.30
2022-10-05T18:50:30.143Z,14.20
2022-10-05T18:53:13.077Z,14.00
2022-10-05T18:55:46.219Z,14.20
2022-10-05T18:58:22.566Z,14.80
2022-10-05T19:01:18.903Z,15.20
2022-10-05T19:03:58.203Z,15.40
2022-10-05T19:06:30.969Z,15.60
2022-10-05T19:09:14.701Z,16.10
2022-10-05T19:11:52.322Z,16.30
2022-10-05T19:14:31.846Z,16.40
2022-10-05T19:17:12.218Z,16.70
2022-10-05T19:19:56.849Z,16.80
2022-10-05T19:22:42.170Z,16.70
2022-10-05T19:25:26.173Z,16.80
2022-10-05T19:28:03.437Z,16.90
2022-10-05T19:30:45.505Z,16.90
2022-10-05T19:33:30.433Z,16.80
2022-10-05T19:36:19.794Z,16.90
2022-10-05T19:38:59.951Z,17.00
2022-10-05T19:41:37.428Z,17.10
2022-10-05T19:44:31.357Z,16.90
2022-10-05T19:47:02.374Z,16.80
2022-10-05T19:49:48.401Z,16.60
2022-10-05T19:52:25.795Z,16.50
2022-10-05T19:55:12.301Z,16.20
2022-10-05T19:57:47.997Z,16.10
2022-10-05T20:00:25.140Z,16.00
2022-10-05T20:02:53.475Z,15.80
2022-10-05T20:05:22.577Z,15.70
2022-10-05T20:07:51.980Z,15.60
2022-10-05T20:10:30.762Z,15.60
2022-10-05T20:13:00.307Z,15.60
2022-10-05T20:15:47.699Z,15.80
2022-10-05T20:18:56.174Z,15.90
2022-10-05T20:21:48.857Z,15.80
2022-10-05T20:24:19.557Z,15.60
2022-10-05T20:27:16.108Z,15.40
2022-10-05T20:29:45.962Z,15.40
2022-10-05T20:32:15.978Z,15.20
2022-10-05T20:34:46.199Z,15.00
2022-10-05T20:37:15.909Z,14.90
2022-10-05T20:39:47.326Z,14.70
2022-10-05T20:42:15.658Z,14.50
2022-10-05T20:44:43.843Z,14.40
2022-10-05T20:47:12.462Z,14.30
2022-10-05T20:49:41.871Z,14.30
2022-10-05T20:52:11.827Z,14.20
2022-10-05T20:54:40.450Z,14.20
2022-10-05T20:57:10.432Z,14.20
2022-10-05T20:59:38.491Z,14.20
2022-10-05T21:02:06.594Z,14.00
2022-10-05T21:04:40.927Z,13.80
2022-10-05T21:07:10.392Z,13.60
2022-10-05T21:09:40.842Z,13.40
2022-10-05T21:12:10.509Z,13.20
2022-10-05T21:14:38.839Z,13.30
2022-10-05T21:17:07.239Z,13.40
2022-10-05T21:19:38.435Z,13.50
2022-10-05T21:22:08.339Z,13.50
2022-10-05T21:24:37.199Z,13.60
2022-10-05T21:27:05.876Z,13.80
2022-10-05T21:29:36.532Z,13.80
2022-10-05T21:32:08.386Z,13.70
2022-10-05T21:34:36.545Z,13.60
2022-10-05T21:37:04.870Z,13.60
2022-10-05T21:39:33.626Z,13.60
2022-10-05T21:42:01.677Z,13.60
2022-10-05T21:44:29.668Z,13.90
2022-10-05T21:46:59.087Z,14.00
2022-10-05T21:49:28.864Z,14.10
2022-10-05T21:51:57.064Z,14.20
2022-10-05T21:54:25.491Z,14.20
2022-10-05T21:56:57.005Z,14.00
2022-10-05T21:59:29.514Z,13.80
2022-10-05T22:01:59.003Z,13.70
2022-10-05T22:04:26.962Z,13.60
2022-10-05T22:06:55.677Z,13.50
2022-10-05T22:09:23.648Z,13.60
2022-10-05T22:11:51.930Z,13.70
2022-10-05T22:14:19.876Z,13.70
2022-10-05T22:16:47.934Z,13.70
2022-10-05T22:19:20.181Z,13.80
2022-10-05T22:21:48.330Z,13.80
2022-10-05T22:24:16.393Z,13.80
2022-10-05T22:26:47.982Z,13.80
2022-10-05T22:29:17.183Z,13.70
2022-10-05T22:31:48.420Z,13.70
2022-10-05T22:34:18.973Z,13.60
2022-10-05T22:36:47.501Z,13.70
2022-10-05T22:39:15.785Z,13.70
2022-10-05T22:41:44.058Z,13.70
2022-10-05T22:44:12.039Z,13.70
2022-10-05T22:46:40.067Z,13.60
2022-10-05T22:49:08.110Z,13.50
2022-10-05T22:51:37.596Z,13.60
2022-10-05T22:54:06.515Z,13.60
2022-10-05T22:56:34.601Z,13.70
2022-10-05T22:59:02.681Z,13.70
2022-10-05T23:01:30.707Z,13.60
2022-10-05T23:03:58.811Z,13.70
2022-10-05T23:06:27.614Z,13.60
2022-10-05T23:08:57.307Z,13.60
2022-10-05T23:11:27.729Z,13.70
2022-10-05T23:13:57.104Z,13.70
2022-10-05T23:16:27.371Z,13.90
2022-10-05T23:18:55.954Z,13.90
2022-10-05T23:21:26.243Z,13.80
2022-10-05T23:23:54.653Z,13.90
2022-10-05T23:26:25.888Z,14.00
2022-10-05T23:28:54.583Z,14.20
2022-10-05T23:31:25.080Z,14.40
2022-10-05T23:33:54.232Z,14.50
2022-10-05T23:36:24.681Z,14.60
2022-10-05T23:38:52.929Z,14.80
2022-10-05T23:41:21.437Z,14.90
2022-10-05T23:43:51.337Z,15.10
2022-10-05T23:46:19.598Z,15.20
2022-10-05T23:48:50.194Z,15.50
2022-10-05T23:51:18.746Z,15.80
2022-10-05T23:53:47.165Z,16.10
2022-10-05T23:56:17.693Z,16.20
2022-10-05T23:58:45.932Z,16.30
